sensor_id;sensor_type;location;lat;lon;timestamp;P1;durP1;ratioP1;P2;durP2;ratioP2
16922;SDS011;8578;50.938;13.556;2024-03-07T00:00:11;18.60;;;11.50;;
16922;SDS011;8578;50.938;13.556;2024-03-07T00:02:44;17.70;;;10.30;;
16922;SDS011;8578;50.938;13.556;2024-03-07T00:05:16;18.70;;;11.27;;
16922;SDS011;8578;50.938;13.556;2024-03-07T00:07:44;19.10;;;11.10;;
16922;SDS011;8578;50.938;13.556;2024-03-07T00:10:12;18.03;;;11.70;;
16922;SDS011;8578;50.938;13.556;2024-03-07T00:12:42;18.73;;;11.57;;
16922;SDS011;8578;50.938;13.556;2024-03-07T00:15:10;19.43;;;11.23;;
16922;SDS011;8578;50.938;13.556;2024-03-07T00:17:38;19.57;;;11.47;;
16922;SDS011;8578;50.938;13.556;2024-03-07T00:20:06;16.23;;;10.33;;
16922;SDS011;8578;50.938;13.556;2024-03-07T00:22:37;18.27;;;10.67;;
16922;SDS011;8578;50.938;13.556;2024-03-07T00:25:04;18.00;;;10.70;;
16922;SDS011;8578;50.938;13.556;2024-03-07T00:27:33;18.70;;;11.40;;
16922;SDS011;8578;50.938;13.556;2024-03-07T00:30:00;19.07;;;10.37;;
16922;SDS011;8578;50.938;13.556;2024-03-07T00:32:28;17.33;;;11.17;;
16922;SDS011;8578;50.938;13.556;2024-03-07T00:35:04;19.93;;;11.53;;
16922;SDS011;8578;50.938;13.556;2024-03-07T00:37:31;18.00;;;11.20;;
16922;SDS011;8578;50.938;13.556;2024-03-07T00:40:00;18.83;;;11.50;;
16922;SDS011;8578;50.938;13.556;2024-03-07T00:42:27;17.00;;;11.53;;
16922;SDS011;8578;50.938;13.556;2024-03-07T00:44:55;17.90;;;10.87;;
16922;SDS011;8578;50.938;13.556;2024-03-07T00:47:23;17.53;;;10.67;;
16922;SDS011;8578;50.938;13.556;2024-03-07T00:49:51;19.00;;;11.40;;
16922;SDS011;8578;50.938;13.556;2024-03-07T00:52:21;18.57;;;11.23;;
16922;SDS011;8578;50.938;13.556;2024-03-07T00:54:49;20.33;;;11.90;;
16922;SDS011;8578;50.938;13.556;2024-03-07T00:57:17;17.20;;;10.77;;
16922;SDS011;8578;50.938;13.556;2024-03-07T00:59:46;17.07;;;10.97;;
16922;SDS011;8578;50.938;13.556;2024-03-07T01:02:14;18.10;;;11.03;;
16922;SDS011;8578;50.938;13.556;2024-03-07T01:04:43;17.97;;;10.97;;
16922;SDS011;8578;50.938;13.556;2024-03-07T01:07:11;17.43;;;10.93;;
16922;SDS011;8578;50.938;13.556;2024-03-07T01:09:39;17.87;;;11.03;;
16922;SDS011;8578;50.938;13.556;2024-03-07T01:12:07;19.37;;;11.20;;
16922;SDS011;8578;50.938;13.556;2024-03-07T01:14:37;19.53;;;12.23;;
16922;SDS011;8578;50.938;13.556;2024-03-07T01:17:05;19.13;;;11.33;;
16922;SDS011;8578;50.938;13.556;2024-03-07T01:19:34;17.17;;;10.40;;
16922;SDS011;8578;50.938;13.556;2024-03-07T01:22:02;17.90;;;11.47;;
16922;SDS011;8578;50.938;13.556;2024-03-07T01:24:29;19.40;;;11.27;;
16922;SDS011;8578;50.938;13.556;2024-03-07T01:26:57;17.37;;;10.77;;
16922;SDS011;8578;50.938;13.556;2024-03-07T01:29:27;19.83;;;11.30;;
16922;SDS011;8578;50.938;13.556;2024-03-07T01:31:57;17.63;;;10.97;;
16922;SDS011;8578;50.938;13.556;2024-03-07T01:34:24;16.40;;;10.40;;
16922;SDS011;8578;50.938;13.556;2024-03-07T01:36:51;17.43;;;9.67;;
16922;SDS011;8578;50.938;13.556;2024-03-07T01:39:19;15.80;;;9.90;;
16922;SDS011;8578;50.938;13.556;2024-03-07T01:41:46;17.37;;;9.73;;
16922;SDS011;8578;50.938;13.556;2024-03-07T01:44:23;16.17;;;9.67;;
16922;SDS011;8578;50.938;13.556;2024-03-07T01:46:50;20.27;;;9.67;;
16922;SDS011;8578;50.938;13.556;2024-03-07T01:49:19;15.53;;;10.43;;
16922;SDS011;8578;50.938;13.556;2024-03-07T01:51:47;16.57;;;9.77;;
16922;SDS011;8578;50.938;13.556;2024-03-07T01:54:14;23.33;;;11.20;;
16922;SDS011;8578;50.938;13.556;2024-03-07T01:56:42;20.63;;;10.60;;
16922;SDS011;8578;50.938;13.556;2024-03-07T01:59:10;26.00;;;10.27;;
16922;SDS011;8578;50.938;13.556;2024-03-07T02:01:38;25.37;;;9.57;;
16922;SDS011;8578;50.938;13.556;2024-03-07T02:04:06;26.20;;;10.33;;
16922;SDS011;8578;50.938;13.556;2024-03-07T02:06:36;36.83;;;10.80;;
16922;SDS011;8578;50.938;13.556;2024-03-07T02:09:03;24.00;;;9.73;;
16922;SDS011;8578;50.938;13.556;2024-03-07T02:11:32;32.07;;;10.47;;
16922;SDS011;8578;50.938;13.556;2024-03-07T02:14:00;40.87;;;10.70;;
16922;SDS011;8578;50.938;13.556;2024-03-07T02:16:27;30.13;;;10.20;;
16922;SDS011;8578;50.938;13.556;2024-03-07T02:18:55;31.63;;;10.20;;
16922;SDS011;8578;50.938;13.556;2024-03-07T02:21:25;51.53;;;11.70;;
16922;SDS011;8578;50.938;13.556;2024-03-07T02:23:52;50.87;;;11.33;;
16922;SDS011;8578;50.938;13.556;2024-03-07T02:26:20;36.53;;;11.40;;
16922;SDS011;8578;50.938;13.556;2024-03-07T02:28:48;25.17;;;10.57;;
16922;SDS011;8578;50.938;13.556;2024-03-07T02:31:15;23.17;;;12.37;;
16922;SDS011;8578;50.938;13.556;2024-03-07T02:33:43;22.30;;;11.53;;
16922;SDS011;8578;50.938;13.556;2024-03-07T02:36:11;20.43;;;11.67;;
16922;SDS011;8578;50.938;13.556;2024-03-07T02:38:41;21.23;;;12.20;;
16922;SDS011;8578;50.938;13.556;2024-03-07T02:41:08;20.70;;;11.77;;
16922;SDS011;8578;50.938;13.556;2024-03-07T02:43:36;24.13;;;12.30;;
16922;SDS011;8578;50.938;13.556;2024-03-07T02:46:04;22.07;;;13.27;;
16922;SDS011;8578;50.938;13.556;2024-03-07T02:48:32;22.20;;;12.70;;
16922;SDS011;8578;50.938;13.556;2024-03-07T02:51:00;23.97;;;12.27;;
16922;SDS011;8578;50.938;13.556;2024-03-07T02:53:28;20.43;;;11.97;;
16922;SDS011;8578;50.938;13.556;2024-03-07T02:55:57;24.13;;;13.57;;
16922;SDS011;8578;50.938;13.556;2024-03-07T02:58:24;26.50;;;12.97;;
16922;SDS011;8578;50.938;13.556;2024-03-07T03:00:56;23.30;;;13.03;;
16922;SDS011;8578;50.938;13.556;2024-03-07T03:03:24;24.00;;;13.70;;
16922;SDS011;8578;50.938;13.556;2024-03-07T03:05:52;23.17;;;13.43;;
16922;SDS011;8578;50.938;13.556;2024-03-07T03:08:20;26.57;;;14.10;;
16922;SDS011;8578;50.938;13.556;2024-03-07T03:10:48;25.73;;;13.07;;
16922;SDS011;8578;50.938;13.556;2024-03-07T03:13:20;24.87;;;13.70;;
16922;SDS011;8578;50.938;13.556;2024-03-07T03:15:47;22.40;;;13.17;;
16922;SDS011;8578;50.938;13.556;2024-03-07T03:18:15;26.67;;;14.33;;
16922;SDS011;8578;50.938;13.556;2024-03-07T03:20:43;25.83;;;14.67;;
16922;SDS011;8578;50.938;13.556;2024-03-07T03:23:14;28.53;;;15.47;;
16922;SDS011;8578;50.938;13.556;2024-03-07T03:25:47;29.33;;;16.30;;
16922;SDS011;8578;50.938;13.556;2024-03-07T03:28:16;27.83;;;15.80;;
16922;SDS011;8578;50.938;13.556;2024-03-07T03:30:47;29.57;;;15.57;;
16922;SDS011;8578;50.938;13.556;2024-03-07T03:33:15;28.57;;;16.03;;
16922;SDS011;8578;50.938;13.556;2024-03-07T03:35:43;28.07;;;16.90;;
16922;SDS011;8578;50.938;13.556;2024-03-07T03:38:12;30.87;;;16.43;;
16922;SDS011;8578;50.938;13.556;2024-03-07T03:40:39;28.37;;;15.77;;
16922;SDS011;8578;50.938;13.556;2024-03-07T03:43:06;33.43;;;16.97;;
16922;SDS011;8578;50.938;13.556;2024-03-07T03:45:34;34.60;;;17.70;;
16922;SDS011;8578;50.938;13.556;2024-03-07T03:48:04;29.40;;;15.97;;
16922;SDS011;8578;50.938;13.556;2024-03-07T03:50:32;28.77;;;16.67;;
16922;SDS011;8578;50.938;13.556;2024-03-07T03:52:59;30.67;;;17.10;;
16922;SDS011;8578;50.938;13.556;2024-03-07T03:55:28;28.17;;;16.60;;
16922;SDS011;8578;50.938;13.556;2024-03-07T03:57:58;30.70;;;16.40;;
16922;SDS011;8578;50.938;13.556;2024-03-07T04:00:26;30.80;;;17.43;;
16922;SDS011;8578;50.938;13.556;2024-03-07T04:02:53;30.77;;;16.97;;
16922;SDS011;8578;50.938;13.556;2024-03-07T04:05:23;26.53;;;15.30;;
16922;SDS011;8578;50.938;13.556;2024-03-07T04:07:51;30.07;;;17.07;;
16922;SDS011;8578;50.938;13.556;2024-03-07T04:10:19;29.17;;;16.37;;
16922;SDS011;8578;50.938;13.556;2024-03-07T04:12:47;30.13;;;15.83;;
16922;SDS011;8578;50.938;13.556;2024-03-07T04:15:15;29.30;;;16.07;;
16922;SDS011;8578;50.938;13.556;2024-03-07T04:17:45;29.70;;;16.47;;
16922;SDS011;8578;50.938;13.556;2024-03-07T04:20:16;30.13;;;17.40;;
16922;SDS011;8578;50.938;13.556;2024-03-07T04:22:47;26.40;;;15.87;;
16922;SDS011;8578;50.938;13.556;2024-03-07T04:25:17;25.90;;;14.73;;
16922;SDS011;8578;50.938;13.556;2024-03-07T04:27:45;29.03;;;15.77;;
16922;SDS011;8578;50.938;13.556;2024-03-07T04:30:12;27.80;;;15.47;;
16922;SDS011;8578;50.938;13.556;2024-03-07T04:32:43;28.60;;;16.47;;
16922;SDS011;8578;50.938;13.556;2024-03-07T04:35:10;28.87;;;16.23;;
16922;SDS011;8578;50.938;13.556;2024-03-07T04:37:43;30.30;;;16.37;;
16922;SDS011;8578;50.938;13.556;2024-03-07T04:40:12;29.83;;;16.30;;
16922;SDS011;8578;50.938;13.556;2024-03-07T04:42:45;29.27;;;15.70;;
16922;SDS011;8578;50.938;13.556;2024-03-07T04:45:13;31.23;;;17.23;;
16922;SDS011;8578;50.938;13.556;2024-03-07T04:47:42;28.90;;;17.07;;
16922;SDS011;8578;50.938;13.556;2024-03-07T04:50:11;30.67;;;16.77;;
16922;SDS011;8578;50.938;13.556;2024-03-07T04:52:39;26.93;;;16.07;;
16922;SDS011;8578;50.938;13.556;2024-03-07T04:55:07;27.87;;;17.07;;
16922;SDS011;8578;50.938;13.556;2024-03-07T04:57:39;31.13;;;17.37;;
16922;SDS011;8578;50.938;13.556;2024-03-07T05:00:08;32.47;;;17.03;;
16922;SDS011;8578;50.938;13.556;2024-03-07T05:02:40;29.83;;;16.73;;
16922;SDS011;8578;50.938;13.556;2024-03-07T05:05:08;30.27;;;16.73;;
16922;SDS011;8578;50.938;13.556;2024-03-07T05:07:35;29.07;;;15.73;;
16922;SDS011;8578;50.938;13.556;2024-03-07T05:10:04;28.37;;;15.03;;
16922;SDS011;8578;50.938;13.556;2024-03-07T05:12:32;24.67;;;14.63;;
16922;SDS011;8578;50.938;13.556;2024-03-07T05:15:01;28.20;;;16.90;;
16922;SDS011;8578;50.938;13.556;2024-03-07T05:17:31;27.97;;;16.20;;
16922;SDS011;8578;50.938;13.556;2024-03-07T05:20:02;28.03;;;16.23;;
16922;SDS011;8578;50.938;13.556;2024-03-07T05:22:30;28.87;;;17.70;;
16922;SDS011;8578;50.938;13.556;2024-03-07T05:24:58;28.17;;;16.80;;
16922;SDS011;8578;50.938;13.556;2024-03-07T05:27:26;28.77;;;16.47;;
16922;SDS011;8578;50.938;13.556;2024-03-07T05:29:55;26.67;;;15.90;;
16922;SDS011;8578;50.938;13.556;2024-03-07T05:32:25;30.57;;;16.00;;
16922;SDS011;8578;50.938;13.556;2024-03-07T05:34:53;29.03;;;17.43;;
16922;SDS011;8578;50.938;13.556;2024-03-07T05:37:21;27.93;;;15.67;;
16922;SDS011;8578;50.938;13.556;2024-03-07T05:39:49;25.97;;;16.13;;
16922;SDS011;8578;50.938;13.556;2024-03-07T05:42:17;26.93;;;15.60;;
16922;SDS011;8578;50.938;13.556;2024-03-07T05:44:45;25.53;;;15.10;;
16922;SDS011;8578;50.938;13.556;2024-03-07T05:47:13;31.73;;;16.53;;
16922;SDS011;8578;50.938;13.556;2024-03-07T05:49:42;27.40;;;15.87;;
16922;SDS011;8578;50.938;13.556;2024-03-07T05:52:10;25.70;;;13.70;;
16922;SDS011;8578;50.938;13.556;2024-03-07T05:54:37;26.73;;;15.80;;
16922;SDS011;8578;50.938;13.556;2024-03-07T05:57:05;27.03;;;15.73;;
16922;SDS011;8578;50.938;13.556;2024-03-07T05:59:33;24.77;;;14.80;;
16922;SDS011;8578;50.938;13.556;2024-03-07T06:02:01;24.27;;;15.00;;
16922;SDS011;8578;50.938;13.556;2024-03-07T06:04:29;24.23;;;14.87;;
16922;SDS011;8578;50.938;13.556;2024-03-07T06:06:59;24.50;;;15.50;;
16922;SDS011;8578;50.938;13.556;2024-03-07T06:09:27;26.60;;;15.80;;
16922;SDS011;8578;50.938;13.556;2024-03-07T06:11:55;30.00;;;15.67;;
16922;SDS011;8578;50.938;13.556;2024-03-07T06:14:24;30.43;;;16.07;;
16922;SDS011;8578;50.938;13.556;2024-03-07T06:16:51;27.77;;;17.07;;
16922;SDS011;8578;50.938;13.556;2024-03-07T06:19:19;25.80;;;16.53;;
16922;SDS011;8578;50.938;13.556;2024-03-07T06:21:46;24.87;;;14.97;;
16922;SDS011;8578;50.938;13.556;2024-03-07T06:24:15;24.23;;;14.93;;
16922;SDS011;8578;50.938;13.556;2024-03-07T06:26:45;24.57;;;14.67;;
16922;SDS011;8578;50.938;13.556;2024-03-07T06:29:14;26.73;;;15.50;;
16922;SDS011;8578;50.938;13.556;2024-03-07T06:31:43;24.77;;;14.70;;
16922;SDS011;8578;50.938;13.556;2024-03-07T06:34:12;23.27;;;15.33;;
16922;SDS011;8578;50.938;13.556;2024-03-07T06:36:43;27.57;;;16.23;;
16922;SDS011;8578;50.938;13.556;2024-03-07T06:39:10;23.63;;;14.30;;
16922;SDS011;8578;50.938;13.556;2024-03-07T06:41:40;24.67;;;15.03;;
16922;SDS011;8578;50.938;13.556;2024-03-07T06:44:09;25.97;;;14.57;;
16922;SDS011;8578;50.938;13.556;2024-03-07T06:46:36;25.03;;;15.20;;
16922;SDS011;8578;50.938;13.556;2024-03-07T06:49:04;25.13;;;15.67;;
16922;SDS011;8578;50.938;13.556;2024-03-07T06:51:37;28.27;;;16.50;;
16922;SDS011;8578;50.938;13.556;2024-03-07T06:54:05;26.70;;;15.37;;
16922;SDS011;8578;50.938;13.556;2024-03-07T06:56:33;23.97;;;14.13;;
16922;SDS011;8578;50.938;13.556;2024-03-07T06:59:02;23.97;;;14.70;;
16922;SDS011;8578;50.938;13.556;2024-03-07T07:01:32;21.63;;;13.73;;
16922;SDS011;8578;50.938;13.556;2024-03-07T07:04:00;24.07;;;14.57;;
16922;SDS011;8578;50.938;13.556;2024-03-07T07:06:30;22.93;;;14.87;;
16922;SDS011;8578;50.938;13.556;2024-03-07T07:08:59;23.93;;;14.37;;
16922;SDS011;8578;50.938;13.556;2024-03-07T07:11:30;22.70;;;13.97;;
16922;SDS011;8578;50.938;13.556;2024-03-07T07:14:02;20.00;;;13.03;;
16922;SDS011;8578;50.938;13.556;2024-03-07T07:16:31;23.30;;;14.57;;
16922;SDS011;8578;50.938;13.556;2024-03-07T07:19:01;24.07;;;13.90;;
16922;SDS011;8578;50.938;13.556;2024-03-07T07:21:30;23.30;;;13.73;;
16922;SDS011;8578;50.938;13.556;2024-03-07T07:23:57;23.70;;;14.27;;
16922;SDS011;8578;50.938;13.556;2024-03-07T07:26:25;22.03;;;14.07;;
16922;SDS011;8578;50.938;13.556;2024-03-07T07:28:53;24.00;;;14.97;;
16922;SDS011;8578;50.938;13.556;2024-03-07T07:31:22;22.70;;;14.13;;
16922;SDS011;8578;50.938;13.556;2024-03-07T07:33:50;21.37;;;14.00;;
16922;SDS011;8578;50.938;13.556;2024-03-07T07:36:18;23.17;;;14.17;;
16922;SDS011;8578;50.938;13.556;2024-03-07T07:38:45;22.97;;;14.50;;
16922;SDS011;8578;50.938;13.556;2024-03-07T07:41:13;24.67;;;14.67;;
16922;SDS011;8578;50.938;13.556;2024-03-07T07:43:41;23.67;;;14.73;;
16922;SDS011;8578;50.938;13.556;2024-03-07T07:46:10;25.30;;;14.10;;
16922;SDS011;8578;50.938;13.556;2024-03-07T07:48:39;20.70;;;13.90;;
16922;SDS011;8578;50.938;13.556;2024-03-07T07:51:08;24.17;;;13.37;;
16922;SDS011;8578;50.938;13.556;2024-03-07T07:53:36;27.10;;;14.33;;
16922;SDS011;8578;50.938;13.556;2024-03-07T07:56:05;24.23;;;13.83;;
16922;SDS011;8578;50.938;13.556;2024-03-07T07:58:34;22.27;;;13.73;;
16922;SDS011;8578;50.938;13.556;2024-03-07T08:01:01;23.73;;;13.73;;
16922;SDS011;8578;50.938;13.556;2024-03-07T08:03:30;23.27;;;13.33;;
16922;SDS011;8578;50.938;13.556;2024-03-07T08:06:01;20.07;;;12.67;;
16922;SDS011;8578;50.938;13.556;2024-03-07T08:08:28;22.17;;;12.87;;
16922;SDS011;8578;50.938;13.556;2024-03-07T08:10:56;21.07;;;12.30;;
16922;SDS011;8578;50.938;13.556;2024-03-07T08:13:23;19.27;;;11.13;;
16922;SDS011;8578;50.938;13.556;2024-03-07T08:15:51;16.90;;;11.23;;
16922;SDS011;8578;50.938;13.556;2024-03-07T08:18:20;17.73;;;10.50;;
16922;SDS011;8578;50.938;13.556;2024-03-07T08:20:48;19.07;;;10.70;;
16922;SDS011;8578;50.938;13.556;2024-03-07T08:23:19;17.43;;;10.23;;
16922;SDS011;8578;50.938;13.556;2024-03-07T08:25:48;18.00;;;10.17;;
16922;SDS011;8578;50.938;13.556;2024-03-07T08:28:16;15.70;;;9.93;;
16922;SDS011;8578;50.938;13.556;2024-03-07T08:30:44;17.37;;;10.63;;
16922;SDS011;8578;50.938;13.556;2024-03-07T08:33:13;16.23;;;10.53;;
16922;SDS011;8578;50.938;13.556;2024-03-07T08:35:41;17.87;;;11.07;;
16922;SDS011;8578;50.938;13.556;2024-03-07T08:38:09;19.03;;;11.67;;
16922;SDS011;8578;50.938;13.556;2024-03-07T08:40:39;15.97;;;10.30;;
16922;SDS011;8578;50.938;13.556;2024-03-07T08:43:07;16.00;;;10.10;;
16922;SDS011;8578;50.938;13.556;2024-03-07T08:45:34;17.10;;;10.50;;
16922;SDS011;8578;50.938;13.556;2024-03-07T08:48:02;16.57;;;10.97;;
16922;SDS011;8578;50.938;13.556;2024-03-07T08:50:32;17.37;;;10.57;;
16922;SDS011;8578;50.938;13.556;2024-03-07T08:53:03;17.37;;;10.40;;
16922;SDS011;8578;50.938;13.556;2024-03-07T08:55:31;14.97;;;10.10;;
16922;SDS011;8578;50.938;13.556;2024-03-07T08:58:00;17.93;;;9.93;;
16922;SDS011;8578;50.938;13.556;2024-03-07T09:00:27;15.13;;;9.53;;
16922;SDS011;8578;50.938;13.556;2024-03-07T09:02:57;15.73;;;9.93;;
16922;SDS011;8578;50.938;13.556;2024-03-07T09:05:28;15.53;;;9.87;;
16922;SDS011;8578;50.938;13.556;2024-03-07T09:07:57;16.00;;;9.70;;
16922;SDS011;8578;50.938;13.556;2024-03-07T09:10:26;14.90;;;9.50;;
16922;SDS011;8578;50.938;13.556;2024-03-07T09:12:56;17.10;;;9.33;;
16922;SDS011;8578;50.938;13.556;2024-03-07T09:15:26;13.83;;;8.37;;
16922;SDS011;8578;50.938;13.556;2024-03-07T09:17:56;12.80;;;8.30;;
16922;SDS011;8578;50.938;13.556;2024-03-07T09:20:25;17.60;;;8.60;;
16922;SDS011;8578;50.938;13.556;2024-03-07T09:22:53;15.20;;;8.50;;
16922;SDS011;8578;50.938;13.556;2024-03-07T09:25:23;15.40;;;8.77;;
16922;SDS011;8578;50.938;13.556;2024-03-07T09:27:52;20.97;;;9.67;;
16922;SDS011;8578;50.938;13.556;2024-03-07T09:30:21;13.27;;;8.13;;
16922;SDS011;8578;50.938;13.556;2024-03-07T09:32:53;13.63;;;8.63;;
16922;SDS011;8578;50.938;13.556;2024-03-07T09:35:22;15.20;;;9.07;;
16922;SDS011;8578;50.938;13.556;2024-03-07T09:37:51;13.17;;;8.27;;
16922;SDS011;8578;50.938;13.556;2024-03-07T09:40:20;12.77;;;7.60;;
16922;SDS011;8578;50.938;13.556;2024-03-07T09:42:51;14.53;;;8.87;;
16922;SDS011;8578;50.938;13.556;2024-03-07T09:45:22;13.73;;;9.33;;
16922;SDS011;8578;50.938;13.556;2024-03-07T09:47:50;15.27;;;9.03;;
16922;SDS011;8578;50.938;13.556;2024-03-07T09:50:21;13.60;;;8.83;;
16922;SDS011;8578;50.938;13.556;2024-03-07T09:52:50;13.50;;;8.93;;
16922;SDS011;8578;50.938;13.556;2024-03-07T09:55:18;14.87;;;8.60;;
16922;SDS011;8578;50.938;13.556;2024-03-07T09:57:46;14.23;;;8.80;;
16922;SDS011;8578;50.938;13.556;2024-03-07T10:00:16;12.20;;;7.93;;
16922;SDS011;8578;50.938;13.556;2024-03-07T10:02:50;11.63;;;7.67;;
16922;SDS011;8578;50.938;13.556;2024-03-07T10:05:22;12.50;;;7.17;;
16922;SDS011;8578;50.938;13.556;2024-03-07T10:07:49;14.30;;;7.80;;
16922;SDS011;8578;50.938;13.556;2024-03-07T10:10:17;15.77;;;8.33;;
16922;SDS011;8578;50.938;13.556;2024-03-07T10:12:44;15.57;;;8.53;;
16922;SDS011;8578;50.938;13.556;2024-03-07T10:15:12;11.67;;;7.40;;
16922;SDS011;8578;50.938;13.556;2024-03-07T10:17:44;12.47;;;8.03;;
16922;SDS011;8578;50.938;13.556;2024-03-07T10:20:14;13.20;;;8.30;;
16922;SDS011;8578;50.938;13.556;2024-03-07T10:22:43;13.03;;;8.10;;
16922;SDS011;8578;50.938;13.556;2024-03-07T10:25:10;13.40;;;8.97;;
16922;SDS011;8578;50.938;13.556;2024-03-07T10:27:38;13.00;;;8.03;;
16922;SDS011;8578;50.938;13.556;2024-03-07T10:30:06;11.80;;;7.67;;
16922;SDS011;8578;50.938;13.556;2024-03-07T10:32:34;12.90;;;8.37;;
16922;SDS011;8578;50.938;13.556;2024-03-07T10:35:02;13.53;;;8.43;;
16922;SDS011;8578;50.938;13.556;2024-03-07T10:37:30;10.37;;;7.27;;
16922;SDS011;8578;50.938;13.556;2024-03-07T10:40:01;12.23;;;7.80;;
16922;SDS011;8578;50.938;13.556;2024-03-07T10:42:42;16.23;;;8.57;;
16922;SDS011;8578;50.938;13.556;2024-03-07T10:45:12;13.57;;;8.87;;
16922;SDS011;8578;50.938;13.556;2024-03-07T10:47:43;12.10;;;8.33;;
16922;SDS011;8578;50.938;13.556;2024-03-07T10:50:14;13.43;;;9.13;;
16922;SDS011;8578;50.938;13.556;2024-03-07T10:52:47;13.30;;;8.80;;
16922;SDS011;8578;50.938;13.556;2024-03-07T10:55:22;12.67;;;8.53;;
16922;SDS011;8578;50.938;13.556;2024-03-07T10:57:52;13.20;;;8.77;;
16922;SDS011;8578;50.938;13.556;2024-03-07T11:00:25;12.97;;;8.67;;
16922;SDS011;8578;50.938;13.556;2024-03-07T11:03:02;16.13;;;9.30;;
16922;SDS011;8578;50.938;13.556;2024-03-07T11:05:34;13.80;;;8.90;;
16922;SDS011;8578;50.938;13.556;2024-03-07T11:08:02;14.23;;;8.93;;
16922;SDS011;8578;50.938;13.556;2024-03-07T11:10:35;14.27;;;8.70;;
16922;SDS011;8578;50.938;13.556;2024-03-07T11:13:03;14.57;;;9.10;;
16922;SDS011;8578;50.938;13.556;2024-03-07T11:15:31;13.83;;;9.23;;
16922;SDS011;8578;50.938;13.556;2024-03-07T11:18:00;13.87;;;9.27;;
16922;SDS011;8578;50.938;13.556;2024-03-07T11:20:33;15.10;;;10.57;;
16922;SDS011;8578;50.938;13.556;2024-03-07T11:23:01;13.67;;;8.97;;
16922;SDS011;8578;50.938;13.556;2024-03-07T11:25:50;14.23;;;9.87;;
16922;SDS011;8578;50.938;13.556;2024-03-07T11:28:27;13.83;;;9.83;;
16922;SDS011;8578;50.938;13.556;2024-03-07T11:30:59;15.17;;;9.90;;
16922;SDS011;8578;50.938;13.556;2024-03-07T11:33:33;13.50;;;9.43;;
16922;SDS011;8578;50.938;13.556;2024-03-07T11:36:01;16.70;;;10.17;;
16922;SDS011;8578;50.938;13.556;2024-03-07T11:38:30;14.97;;;9.77;;
16922;SDS011;8578;50.938;13.556;2024-03-07T11:41:02;18.63;;;10.97;;
16922;SDS011;8578;50.938;13.556;2024-03-07T11:43:30;16.33;;;10.67;;
16922;SDS011;8578;50.938;13.556;2024-03-07T11:45:58;17.83;;;11.40;;
16922;SDS011;8578;50.938;13.556;2024-03-07T11:48:26;16.70;;;11.70;;
16922;SDS011;8578;50.938;13.556;2024-03-07T11:50:54;18.17;;;10.97;;
16922;SDS011;8578;50.938;13.556;2024-03-07T11:53:22;19.40;;;11.37;;
16922;SDS011;8578;50.938;13.556;2024-03-07T11:55:50;17.87;;;11.17;;
16922;SDS011;8578;50.938;13.556;2024-03-07T11:58:21;18.30;;;11.40;;
16922;SDS011;8578;50.938;13.556;2024-03-07T12:00:49;18.10;;;11.13;;
16922;SDS011;8578;50.938;13.556;2024-03-07T12:03:19;18.27;;;11.63;;
16922;SDS011;8578;50.938;13.556;2024-03-07T12:05:49;17.97;;;11.40;;
16922;SDS011;8578;50.938;13.556;2024-03-07T12:08:18;21.83;;;11.90;;
16922;SDS011;8578;50.938;13.556;2024-03-07T12:10:49;16.00;;;10.70;;
16922;SDS011;8578;50.938;13.556;2024-03-07T12:13:21;17.73;;;10.93;;
16922;SDS011;8578;50.938;13.556;2024-03-07T12:15:51;14.43;;;10.40;;
16922;SDS011;8578;50.938;13.556;2024-03-07T12:18:18;19.23;;;11.33;;
16922;SDS011;8578;50.938;13.556;2024-03-07T12:20:47;19.83;;;11.43;;
16922;SDS011;8578;50.938;13.556;2024-03-07T12:23:22;15.50;;;10.17;;
16922;SDS011;8578;50.938;13.556;2024-03-07T12:25:58;19.97;;;11.03;;
16922;SDS011;8578;50.938;13.556;2024-03-07T12:28:28;18.00;;;10.93;;
16922;SDS011;8578;50.938;13.556;2024-03-07T12:31:00;15.87;;;10.07;;
16922;SDS011;8578;50.938;13.556;2024-03-07T12:33:30;16.17;;;10.57;;
16922;SDS011;8578;50.938;13.556;2024-03-07T12:36:06;15.63;;;10.90;;
16922;SDS011;8578;50.938;13.556;2024-03-07T12:38:36;16.40;;;10.07;;
16922;SDS011;8578;50.938;13.556;2024-03-07T12:41:05;16.23;;;11.00;;
16922;SDS011;8578;50.938;13.556;2024-03-07T12:43:35;15.20;;;9.90;;
16922;SDS011;8578;50.938;13.556;2024-03-07T12:46:04;15.30;;;10.00;;
16922;SDS011;8578;50.938;13.556;2024-03-07T12:48:32;17.40;;;10.20;;
16922;SDS011;8578;50.938;13.556;2024-03-07T12:51:00;15.43;;;9.83;;
16922;SDS011;8578;50.938;13.556;2024-03-07T12:53:28;16.80;;;10.17;;
16922;SDS011;8578;50.938;13.556;2024-03-07T12:55:57;15.30;;;9.77;;
16922;SDS011;8578;50.938;13.556;2024-03-07T12:58:26;17.10;;;10.73;;
16922;SDS011;8578;50.938;13.556;2024-03-07T13:00:56;15.53;;;10.60;;
16922;SDS011;8578;50.938;13.556;2024-03-07T13:03:24;16.63;;;11.17;;
16922;SDS011;8578;50.938;13.556;2024-03-07T13:05:56;19.40;;;11.30;;
16922;SDS011;8578;50.938;13.556;2024-03-07T13:08:27;18.80;;;11.53;;
16922;SDS011;8578;50.938;13.556;2024-03-07T13:10:55;18.07;;;10.23;;
16922;SDS011;8578;50.938;13.556;2024-03-07T13:13:27;15.77;;;10.73;;
16922;SDS011;8578;50.938;13.556;2024-03-07T13:15:54;17.50;;;10.30;;
16922;SDS011;8578;50.938;13.556;2024-03-07T13:18:24;17.97;;;10.43;;
16922;SDS011;8578;50.938;13.556;2024-03-07T13:20:52;17.83;;;10.80;;
16922;SDS011;8578;50.938;13.556;2024-03-07T13:23:20;15.97;;;9.83;;
16922;SDS011;8578;50.938;13.556;2024-03-07T13:25:47;18.47;;;10.73;;
16922;SDS011;8578;50.938;13.556;2024-03-07T13:28:16;15.33;;;10.60;;
16922;SDS011;8578;50.938;13.556;2024-03-07T13:30:44;16.53;;;10.30;;
16922;SDS011;8578;50.938;13.556;2024-03-07T13:33:16;14.93;;;10.50;;
16922;SDS011;8578;50.938;13.556;2024-03-07T13:35:46;14.97;;;9.97;;
16922;SDS011;8578;50.938;13.556;2024-03-07T13:38:14;15.10;;;10.07;;
16922;SDS011;8578;50.938;13.556;2024-03-07T13:40:42;19.33;;;11.30;;
16922;SDS011;8578;50.938;13.556;2024-03-07T13:43:09;20.90;;;12.00;;
16922;SDS011;8578;50.938;13.556;2024-03-07T13:45:37;18.10;;;10.20;;
16922;SDS011;8578;50.938;13.556;2024-03-07T13:48:07;16.47;;;10.60;;
16922;SDS011;8578;50.938;13.556;2024-03-07T13:50:36;14.27;;;9.50;;
16922;SDS011;8578;50.938;13.556;2024-03-07T13:53:26;17.43;;;10.07;;
16922;SDS011;8578;50.938;13.556;2024-03-07T13:56:06;15.40;;;9.37;;
16922;SDS011;8578;50.938;13.556;2024-03-07T13:58:44;18.67;;;11.20;;
16922;SDS011;8578;50.938;13.556;2024-03-07T14:01:21;24.07;;;13.13;;
16922;SDS011;8578;50.938;13.556;2024-03-07T14:04:16;22.83;;;13.33;;
16922;SDS011;8578;50.938;13.556;2024-03-07T14:06:50;18.43;;;10.47;;
16922;SDS011;8578;50.938;13.556;2024-03-07T14:09:36;20.40;;;11.87;;
16922;SDS011;8578;50.938;13.556;2024-03-07T14:20:45;21.97;;;11.87;;
16922;SDS011;8578;50.938;13.556;2024-03-07T14:23:19;23.23;;;12.30;;
16922;SDS011;8578;50.938;13.556;2024-03-07T14:25:59;19.47;;;10.50;;
16922;SDS011;8578;50.938;13.556;2024-03-07T14:28:50;16.47;;;8.33;;
16922;SDS011;8578;50.938;13.556;2024-03-07T14:31:19;14.40;;;9.27;;
16922;SDS011;8578;50.938;13.556;2024-03-07T14:33:53;16.20;;;8.70;;
16922;SDS011;8578;50.938;13.556;2024-03-07T14:36:32;14.33;;;8.43;;
16922;SDS011;8578;50.938;13.556;2024-03-07T14:39:02;11.90;;;7.77;;
16922;SDS011;8578;50.938;13.556;2024-03-07T14:41:43;14.13;;;8.40;;
16922;SDS011;8578;50.938;13.556;2024-03-07T14:44:13;12.60;;;8.10;;
16922;SDS011;8578;50.938;13.556;2024-03-07T14:46:42;12.43;;;8.10;;